createdAt,value
2018-08-28T00:00:25.711Z,22.80
2018-08-28T00:03:01.524Z,22.80
2018-08-28T00:05:37.270Z,22.70
2018-08-28T00:08:15.075Z,22.70
2018-08-28T00:10:50.624Z,22.70
2018-08-28T00:13:25.091Z,22.70
2018-08-28T00:16:00.788Z,22.70
2018-08-28T00:18:36.079Z,22.70
2018-08-28T00:21:10.508Z,22.70
2018-08-28T00:23:46.098Z,22.70
2018-08-28T00:41:54.039Z,22.70
2018-08-28T00:44:30.811Z,22.40
2018-08-28T00:47:06.408Z,22.40
2018-08-28T00:49:40.816Z,22.50
2018-08-28T00:52:15.124Z,22.60
2018-08-28T00:54:50.011Z,22.50
2018-08-28T00:57:24.383Z,22.40
2018-08-28T01:00:00.187Z,22.00
2018-08-28T01:02:35.724Z,22.20
2018-08-28T01:05:10.331Z,22.10
2018-08-28T01:07:45.947Z,21.90
2018-08-28T01:10:21.731Z,22.00
2018-08-28T01:12:56.307Z,22.10
2018-08-28T01:15:30.734Z,21.70
2018-08-28T01:18:06.663Z,21.90
2018-08-28T01:20:42.095Z,21.50
2018-08-28T01:30:21.582Z,21.30
2018-08-28T01:32:56.847Z,20.50
2018-08-28T01:35:31.326Z,20.50
2018-08-28T01:38:06.028Z,20.60
2018-08-28T01:40:40.507Z,20.60
2018-08-28T01:43:21.840Z,20.80
2018-08-28T01:45:57.581Z,20.60
2018-08-28T01:48:32.088Z,20.60
2018-08-28T01:51:06.411Z,20.70
2018-08-28T01:53:40.951Z,20.90
2018-08-28T01:56:15.382Z,21.10
2018-08-28T01:58:56.102Z,21.20
2018-08-28T02:01:44.128Z,21.20
2018-08-28T02:04:18.650Z,21.10
2018-08-28T02:06:54.328Z,21.30
2018-08-28T02:09:30.244Z,20.90
2018-08-28T02:12:04.662Z,21.20
2018-08-28T02:14:39.287Z,21.30
2018-08-28T02:17:13.700Z,21.60
2018-08-28T02:19:49.493Z,21.80
2018-08-28T02:22:25.324Z,22.10
2018-08-28T02:25:00.157Z,22.00
2018-08-28T02:27:34.610Z,22.10
2018-08-28T02:30:10.383Z,21.90
2018-08-28T02:32:44.815Z,21.50
2018-08-28T02:35:19.212Z,21.30
2018-08-28T02:37:53.667Z,21.30
2018-08-28T02:40:29.488Z,21.50
2018-08-28T02:43:03.843Z,21.70
2018-08-28T02:45:39.768Z,21.90
2018-08-28T02:48:14.232Z,21.60
2018-08-28T02:50:48.707Z,21.50
2018-08-28T02:53:23.168Z,21.00
2018-08-28T02:55:57.705Z,20.60
2018-08-28T02:58:32.218Z,20.60
2018-08-28T03:01:07.841Z,20.60
2018-08-28T03:03:43.576Z,20.80
2018-08-28T03:06:18.138Z,20.90
2018-08-28T03:08:53.755Z,21.30
2018-08-28T03:11:29.414Z,21.30
2018-08-28T03:14:05.193Z,21.40
2018-08-28T03:16:40.098Z,21.20
2018-08-28T03:19:15.799Z,20.80
2018-08-28T03:21:51.660Z,20.80
2018-08-28T03:24:27.460Z,20.70
2018-08-28T03:27:03.113Z,20.90
2018-08-28T03:29:38.968Z,20.60
2018-08-28T03:33:42.779Z,20.60
2018-08-28T03:36:17.284Z,20.50
2018-08-28T03:38:55.262Z,19.90
2018-08-28T03:41:29.797Z,20.20
2018-08-28T03:44:05.668Z,20.30
2018-08-28T03:46:41.430Z,20.30
2018-08-28T03:49:15.855Z,20.40
2018-08-28T03:51:50.249Z,19.90
2018-08-28T03:54:24.547Z,19.80
2018-08-28T03:56:58.971Z,20.20
2018-08-28T03:59:34.843Z,20.60
2018-08-28T04:02:10.525Z,20.60
2018-08-28T04:04:44.962Z,20.10
2018-08-28T04:07:20.803Z,20.00
2018-08-28T04:09:56.455Z,20.10
2018-08-28T04:12:30.853Z,20.50
2018-08-28T04:15:06.752Z,20.90
2018-08-28T04:17:48.304Z,21.10
2018-08-28T04:20:22.791Z,21.30
2018-08-28T04:22:58.179Z,21.50
2018-08-28T04:25:43.438Z,21.50
2018-08-28T04:28:17.760Z,21.40
2018-08-28T04:30:53.538Z,21.20
2018-08-28T04:33:27.968Z,21.40
2018-08-28T04:36:02.406Z,21.70
2018-08-28T04:38:38.462Z,21.40
2018-08-28T04:41:12.867Z,21.10
2018-08-28T04:43:48.755Z,21.20
2018-08-28T04:46:24.352Z,21.50
2018-08-28T04:49:00.184Z,21.70
2018-08-28T04:51:34.803Z,21.70
2018-08-28T04:54:10.542Z,21.40
2018-08-28T04:56:44.909Z,21.30
2018-08-28T04:59:20.357Z,20.90
2018-08-28T05:01:56.069Z,20.50
2018-08-28T05:04:30.435Z,20.40
2018-08-28T05:07:06.025Z,20.80
2018-08-28T05:09:41.588Z,21.00
2018-08-28T05:12:25.364Z,20.60
2018-08-28T05:15:00.787Z,20.10
2018-08-28T05:17:35.307Z,19.80
2018-08-28T05:20:10.872Z,19.90
2018-08-28T05:22:46.672Z,19.90
2018-08-28T05:25:21.021Z,19.60
2018-08-28T05:27:55.437Z,19.90
2018-08-28T05:30:31.335Z,20.20
2018-08-28T05:33:05.766Z,20.10
2018-08-28T05:35:40.130Z,20.10
2018-08-28T05:38:14.524Z,20.40
2018-08-28T05:40:50.228Z,20.40
2018-08-28T05:43:32.955Z,20.10
2018-08-28T05:46:08.743Z,19.70
2018-08-28T05:48:43.322Z,19.70
2018-08-28T05:51:17.749Z,19.50
2018-08-28T05:53:52.688Z,19.90
2018-08-28T05:56:28.030Z,20.10
2018-08-28T05:59:03.780Z,19.90
2018-08-28T06:01:56.629Z,20.00
2018-08-28T06:04:31.007Z,20.20
2018-08-28T06:07:06.507Z,20.60
2018-08-28T06:09:41.999Z,20.60
2018-08-28T06:12:17.703Z,20.60
2018-08-28T06:14:52.273Z,20.40
2018-08-28T06:17:27.131Z,20.80
2018-08-28T06:20:03.190Z,20.70
2018-08-28T06:22:38.979Z,20.30
2018-08-28T06:25:13.464Z,20.50
2018-08-28T06:27:47.854Z,20.70
2018-08-28T06:30:23.867Z,21.10
2018-08-28T06:32:58.361Z,21.30
2018-08-28T06:35:33.965Z,21.60
2018-08-28T06:38:08.264Z,21.10
2018-08-28T06:40:43.890Z,21.30
2018-08-28T06:43:19.884Z,21.50
2018-08-28T06:45:55.599Z,21.70
2018-08-28T06:48:30.223Z,21.90
2018-08-28T06:51:06.279Z,21.80
2018-08-28T06:53:40.938Z,21.70
2018-08-28T06:56:15.339Z,22.10
2018-08-28T06:58:56.565Z,22.20
2018-08-28T07:01:32.267Z,21.90
2018-08-28T07:04:07.988Z,21.90
2018-08-28T07:06:43.987Z,22.20
2018-08-28T07:09:19.837Z,21.70
2018-08-28T07:11:54.242Z,21.80
2018-08-28T07:14:30.028Z,21.60
2018-08-28T07:17:05.620Z,20.90
2018-08-28T07:19:41.739Z,20.60
2018-08-28T07:22:17.597Z,20.80
2018-08-28T07:24:52.184Z,20.90
2018-08-28T07:27:28.133Z,20.80
2018-08-28T07:30:03.729Z,20.80
2018-08-28T07:32:38.123Z,20.70
2018-08-28T07:35:12.600Z,20.50
2018-08-28T07:37:47.053Z,20.40
2018-08-28T07:40:22.867Z,20.40
2018-08-28T07:42:58.835Z,21.00
2018-08-28T07:45:34.645Z,21.00
2018-08-28T07:48:09.487Z,20.80
2018-08-28T07:50:43.894Z,20.90
2018-08-28T07:53:19.587Z,21.10
2018-08-28T07:55:54.075Z,21.60
2018-08-28T07:58:28.519Z,21.60
2018-08-28T08:01:04.032Z,21.80
2018-08-28T08:03:39.757Z,21.10
2018-08-28T08:06:15.601Z,20.90
2018-08-28T08:08:52.123Z,21.10
2018-08-28T08:11:27.048Z,21.40
2018-08-28T08:29:33.624Z,22.00
2018-08-28T08:32:08.105Z,22.50
2018-08-28T08:34:43.004Z,22.40
2018-08-28T08:37:18.963Z,22.90
2018-08-28T08:39:54.823Z,23.20
2018-08-28T08:42:29.275Z,23.30
2018-08-28T08:45:06.176Z,23.90
2018-08-28T08:47:41.126Z,24.30
2018-08-28T08:50:15.620Z,24.30
2018-08-28T08:52:50.307Z,24.90
2018-08-28T08:55:24.851Z,25.30
2018-08-28T08:57:59.338Z,25.60
2018-08-28T09:00:35.378Z,26.00
2018-08-28T09:05:45.858Z,26.30
2018-08-28T09:08:21.739Z,26.10
2018-08-28T09:10:58.072Z,25.90
2018-08-28T09:13:33.822Z,25.70
2018-08-28T09:16:09.550Z,25.40
2018-08-28T09:18:44.468Z,25.30
2018-08-28T09:21:19.151Z,25.00
2018-08-28T09:23:54.646Z,25.20
2018-08-28T09:26:29.040Z,25.10
2018-08-28T09:29:03.611Z,24.40
2018-08-28T09:31:39.455Z,24.70
2018-08-28T09:34:14.040Z,24.60
2018-08-28T09:36:48.532Z,25.10
2018-08-28T09:39:24.348Z,25.50
2018-08-28T09:41:58.624Z,25.40
2018-08-28T09:44:36.146Z,24.90
2018-08-28T09:47:10.566Z,24.30
2018-08-28T09:49:45.085Z,24.10
2018-08-28T09:52:19.348Z,24.10
2018-08-28T09:54:53.803Z,24.60
2018-08-28T09:57:28.227Z,25.00
2018-08-28T10:00:03.895Z,25.40
2018-08-28T10:02:39.622Z,25.50
2018-08-28T10:05:14.138Z,25.30
2018-08-28T10:07:49.866Z,25.20
2018-08-28T10:10:25.483Z,25.50
2018-08-28T10:12:59.872Z,25.40
2018-08-28T10:15:34.367Z,24.90
2018-08-28T10:18:08.665Z,24.80
2018-08-28T10:20:43.053Z,24.80
2018-08-28T10:23:19.319Z,25.30
2018-08-28T10:25:55.084Z,25.60
2018-08-28T10:30:55.512Z,26.00
2018-08-28T10:33:30.011Z,26.60
2018-08-28T10:36:04.563Z,26.80
2018-08-28T10:38:40.826Z,27.00
2018-08-28T10:41:15.785Z,27.10
2018-08-28T10:43:51.981Z,27.00
2018-08-28T10:46:26.563Z,26.90
2018-08-28T10:49:00.879Z,27.10
2018-08-28T10:51:35.270Z,27.20
2018-08-28T10:54:09.663Z,26.60
2018-08-28T10:56:44.179Z,26.40
2018-08-28T10:59:20.287Z,26.60
2018-08-28T11:02:12.559Z,26.80
2018-08-28T11:04:46.942Z,27.00
2018-08-28T11:07:22.912Z,26.20
2018-08-28T11:09:58.867Z,26.20
2018-08-28T11:12:34.088Z,26.70
2018-08-28T11:15:09.964Z,27.00
2018-08-28T11:17:44.739Z,27.00
2018-08-28T11:20:20.998Z,26.80
2018-08-28T11:22:57.186Z,26.50
2018-08-28T11:25:32.478Z,26.40
2018-08-28T11:28:07.327Z,26.70
2018-08-28T11:30:44.068Z,26.90
2018-08-28T11:33:19.536Z,27.10
2018-08-28T11:35:54.144Z,27.20
2018-08-28T11:40:01.819Z,27.10
2018-08-28T11:42:36.195Z,27.00
2018-08-28T11:45:11.833Z,26.30
2018-08-28T11:47:46.277Z,26.60
2018-08-28T11:50:20.651Z,26.70
2018-08-28T11:52:55.229Z,26.60
2018-08-28T11:55:29.583Z,26.80
2018-08-28T11:58:05.581Z,27.20
2018-08-28T12:00:41.436Z,27.50
2018-08-28T12:03:17.093Z,27.60
2018-08-28T12:05:51.447Z,27.70
2018-08-28T12:08:27.168Z,26.70
2018-08-28T12:11:03.016Z,26.20
2018-08-28T12:13:39.467Z,26.90
2018-08-28T12:16:14.042Z,27.60
2018-08-28T12:18:48.379Z,27.60
2018-08-28T12:28:23.117Z,27.50
2018-08-28T12:30:58.628Z,27.40
2018-08-28T12:33:32.965Z,27.80
2018-08-28T12:36:07.211Z,28.00
2018-08-28T12:38:43.124Z,27.60
2018-08-28T12:41:17.391Z,27.30
2018-08-28T12:43:53.208Z,27.40
2018-08-28T12:46:27.799Z,27.00
2018-08-28T12:49:02.110Z,27.00
2018-08-28T12:51:36.633Z,27.10
2018-08-28T12:54:12.528Z,27.50
2018-08-28T12:56:47.108Z,27.80
2018-08-28T12:59:22.851Z,28.20
2018-08-28T13:04:45.247Z,28.70
2018-08-28T13:07:21.097Z,28.90
2018-08-28T13:09:56.495Z,28.90
2018-08-28T13:12:31.151Z,29.10
2018-08-28T13:15:17.692Z,29.20
2018-08-28T13:17:52.163Z,29.20
2018-08-28T13:20:26.500Z,29.20
2018-08-28T13:23:02.047Z,29.30
2018-08-28T13:25:36.577Z,29.40
2018-08-28T13:28:11.343Z,29.40
2018-08-28T13:30:47.079Z,29.40
2018-08-28T13:33:21.511Z,29.60
2018-08-28T13:35:55.991Z,29.70
2018-08-28T13:38:37.460Z,29.70
2018-08-28T13:41:11.848Z,29.80
2018-08-28T13:43:47.498Z,29.70
2018-08-28T13:56:40.433Z,29.70
2018-08-28T13:59:16.585Z,29.20
2018-08-28T14:01:53.152Z,29.20
2018-08-28T14:04:29.451Z,29.40
2018-08-28T14:07:05.528Z,29.50
2018-08-28T14:09:41.328Z,29.50
2018-08-28T14:12:15.892Z,29.50
2018-08-28T14:40:40.839Z,29.30
2018-08-28T14:43:15.203Z,29.60
2018-08-28T14:45:51.423Z,29.70
2018-08-28T14:48:31.195Z,29.70
2018-08-28T14:51:06.955Z,29.70
2018-08-28T14:53:42.520Z,29.60
2018-08-28T14:56:18.059Z,29.70
2018-08-28T14:58:59.181Z,29.70
2018-08-28T15:01:34.625Z,29.70
2018-08-28T15:04:10.277Z,29.70
2018-08-28T15:06:53.657Z,29.90
2018-08-28T15:09:29.088Z,30.30
2018-08-28T15:12:05.110Z,30.40
2018-08-28T15:14:39.540Z,30.30
2018-08-28T15:17:13.997Z,30.70
2018-08-28T15:19:48.488Z,31.40
2018-08-28T15:22:24.088Z,31.80
2018-08-28T15:24:58.930Z,32.20
2018-08-28T16:14:31.342Z,32.50
2018-08-28T16:17:06.043Z,31.20
2018-08-28T16:19:40.971Z,31.10
2018-08-28T16:22:28.061Z,31.00
2018-08-28T16:25:05.176Z,30.90
2018-08-28T16:27:40.896Z,30.80
2018-08-28T18:19:22.653Z,30.80
